sensor_id;sensor_type;location;lat;lon;timestamp;temperature;humidity
322;DHT22;148;51.480;7.208;2024-01-30T12:33:19;12.90;14.80
322;DHT22;148;51.480;7.208;2024-01-30T12:35:47;13.10;13.70
322;DHT22;148;51.480;7.208;2024-01-30T12:38:15;13.50;18.60
322;DHT22;148;51.480;7.208;2024-01-30T12:40:41;13.70;23.20
322;DHT22;148;51.480;7.208;2024-01-30T12:43:07;13.90;25.00
322;DHT22;148;51.480;7.208;2024-01-30T12:45:32;14.10;27.60
322;DHT22;148;51.480;7.208;2024-01-30T12:47:58;14.30;30.30
322;DHT22;148;51.480;7.208;2024-01-30T12:50:24;14.50;32.10
322;DHT22;148;51.480;7.208;2024-01-30T12:52:50;14.50;33.60
322;DHT22;148;51.480;7.208;2024-01-30T12:55:16;14.60;34.00
322;DHT22;148;51.480;7.208;2024-01-30T12:57:41;14.60;34.50
322;DHT22;148;51.480;7.208;2024-01-30T13:00:08;14.60;35.30
322;DHT22;148;51.480;7.208;2024-01-30T13:02:35;14.60;35.00
322;DHT22;148;51.480;7.208;2024-01-30T13:05:05;14.70;34.50
322;DHT22;148;51.480;7.208;2024-01-30T13:07:30;14.70;34.40
322;DHT22;148;51.480;7.208;2024-01-30T13:09:59;14.60;34.60
322;DHT22;148;51.480;7.208;2024-01-30T13:12:28;14.60;33.60
322;DHT22;148;51.480;7.208;2024-01-30T13:14:54;14.60;34.10
322;DHT22;148;51.480;7.208;2024-01-30T13:17:20;14.50;33.40
322;DHT22;148;51.480;7.208;2024-01-30T13:19:45;14.40;32.70
322;DHT22;148;51.480;7.208;2024-01-30T13:22:11;14.40;31.90
322;DHT22;148;51.480;7.208;2024-01-30T13:24:37;14.40;31.30
322;DHT22;148;51.480;7.208;2024-01-30T13:27:03;14.50;32.00
322;DHT22;148;51.480;7.208;2024-01-30T13:29:31;14.50;31.70
322;DHT22;148;51.480;7.208;2024-01-30T13:31:56;14.50;32.40
322;DHT22;148;51.480;7.208;2024-01-30T13:34:22;14.40;32.80
322;DHT22;148;51.480;7.208;2024-01-30T13:36:48;14.40;31.80
322;DHT22;148;51.480;7.208;2024-01-30T13:39:14;14.50;30.90
322;DHT22;148;51.480;7.208;2024-01-30T13:41:41;14.40;30.90
322;DHT22;148;51.480;7.208;2024-01-30T13:44:07;14.30;29.20
322;DHT22;148;51.480;7.208;2024-01-30T13:46:34;14.30;29.30
322;DHT22;148;51.480;7.208;2024-01-30T13:49:00;14.20;27.10
322;DHT22;148;51.480;7.208;2024-01-30T13:51:25;14.20;27.40
322;DHT22;148;51.480;7.208;2024-01-30T13:53:51;14.10;25.90
322;DHT22;148;51.480;7.208;2024-01-30T13:56:17;14.10;24.70
322;DHT22;148;51.480;7.208;2024-01-30T13:58:43;14.10;24.90
322;DHT22;148;51.480;7.208;2024-01-30T14:01:09;14.10;23.90
322;DHT22;148;51.480;7.208;2024-01-30T14:03:35;14.10;23.90
322;DHT22;148;51.480;7.208;2024-01-30T14:06:01;14.00;23.40
322;DHT22;148;51.480;7.208;2024-01-30T14:08:26;13.90;22.00
322;DHT22;148;51.480;7.208;2024-01-30T14:10:54;14.00;21.20
322;DHT22;148;51.480;7.208;2024-01-30T14:13:20;14.00;21.40
322;DHT22;148;51.480;7.208;2024-01-30T14:15:48;13.90;20.70
322;DHT22;148;51.480;7.208;2024-01-30T14:18:15;14.00;20.00
322;DHT22;148;51.480;7.208;2024-01-30T14:20:41;14.00;21.20
322;DHT22;148;51.480;7.208;2024-01-30T14:23:06;14.10;21.10
322;DHT22;148;51.480;7.208;2024-01-30T14:25:32;14.10;22.10
322;DHT22;148;51.480;7.208;2024-01-30T14:27:58;14.20;22.70
322;DHT22;148;51.480;7.208;2024-01-30T14:30:26;14.20;23.00
322;DHT22;148;51.480;7.208;2024-01-30T14:32:51;14.20;22.60
322;DHT22;148;51.480;7.208;2024-01-30T14:35:17;14.10;22.20
322;DHT22;148;51.480;7.208;2024-01-30T14:37:45;14.20;22.90
322;DHT22;148;51.480;7.208;2024-01-30T14:40:10;14.20;23.20
322;DHT22;148;51.480;7.208;2024-01-30T14:42:36;14.30;22.30
322;DHT22;148;51.480;7.208;2024-01-30T14:45:03;14.30;24.50
322;DHT22;148;51.480;7.208;2024-01-30T14:47:29;14.20;23.70
322;DHT22;148;51.480;7.208;2024-01-30T14:49:56;14.20;22.90
322;DHT22;148;51.480;7.208;2024-01-30T14:52:22;14.10;23.20
322;DHT22;148;51.480;7.208;2024-01-30T14:54:48;14.10;22.00
322;DHT22;148;51.480;7.208;2024-01-30T14:57:13;13.90;20.50
322;DHT22;148;51.480;7.208;2024-01-30T14:59:42;13.90;20.00
322;DHT22;148;51.480;7.208;2024-01-30T15:02:08;13.90;18.20
322;DHT22;148;51.480;7.208;2024-01-30T15:04:34;13.90;20.00
322;DHT22;148;51.480;7.208;2024-01-30T15:07:00;13.90;18.80
322;DHT22;148;51.480;7.208;2024-01-30T15:09:26;13.90;20.10
322;DHT22;148;51.480;7.208;2024-01-30T15:11:52;13.90;20.60
322;DHT22;148;51.480;7.208;2024-01-30T15:14:17;13.90;20.90
322;DHT22;148;51.480;7.208;2024-01-30T15:16:43;13.80;20.30
322;DHT22;148;51.480;7.208;2024-01-30T15:19:09;13.80;20.10
322;DHT22;148;51.480;7.208;2024-01-30T15:21:39;13.80;19.30
322;DHT22;148;51.480;7.208;2024-01-30T15:24:05;13.90;20.30
322;DHT22;148;51.480;7.208;2024-01-30T15:26:31;13.90;19.60
322;DHT22;148;51.480;7.208;2024-01-30T15:28:57;13.80;21.40
322;DHT22;148;51.480;7.208;2024-01-30T15:31:22;13.80;21.80
322;DHT22;148;51.480;7.208;2024-01-30T15:33:48;13.90;22.20
322;DHT22;148;51.480;7.208;2024-01-30T15:36:13;13.90;22.80
322;DHT22;148;51.480;7.208;2024-01-30T15:38:40;13.90;25.10
322;DHT22;148;51.480;7.208;2024-01-30T15:41:06;13.90;25.90
322;DHT22;148;51.480;7.208;2024-01-30T15:43:32;13.90;30.30
322;DHT22;148;51.480;7.208;2024-01-30T15:45:59;13.90;32.90
322;DHT22;148;51.480;7.208;2024-01-30T15:48:26;13.90;33.10
322;DHT22;148;51.480;7.208;2024-01-30T15:50:52;13.90;36.20
322;DHT22;148;51.480;7.208;2024-01-30T15:53:20;13.70;37.90
322;DHT22;148;51.480;7.208;2024-01-30T15:55:45;13.80;40.20
322;DHT22;148;51.480;7.208;2024-01-30T15:58:11;13.70;42.10
322;DHT22;148;51.480;7.208;2024-01-30T16:00:37;13.60;42.70
322;DHT22;148;51.480;7.208;2024-01-30T16:03:03;13.60;42.60
322;DHT22;148;51.480;7.208;2024-01-30T16:05:31;13.60;43.80
322;DHT22;148;51.480;7.208;2024-01-30T16:07:56;13.50;44.10
322;DHT22;148;51.480;7.208;2024-01-30T16:10:22;13.50;45.00
322;DHT22;148;51.480;7.208;2024-01-30T16:12:47;13.40;48.30
322;DHT22;148;51.480;7.208;2024-01-30T16:15:14;13.40;48.70
322;DHT22;148;51.480;7.208;2024-01-30T16:17:40;13.30;49.90
322;DHT22;148;51.480;7.208;2024-01-30T16:20:08;13.40;51.20
322;DHT22;148;51.480;7.208;2024-01-30T16:22:34;13.30;53.50
322;DHT22;148;51.480;7.208;2024-01-30T16:25:00;13.20;55.40
322;DHT22;148;51.480;7.208;2024-01-30T16:27:26;13.10;56.70
322;DHT22;148;51.480;7.208;2024-01-30T16:29:52;13.00;57.70
322;DHT22;148;51.480;7.208;2024-01-30T16:32:18;13.00;57.90
322;DHT22;148;51.480;7.208;2024-01-30T16:34:44;13.00;58.00
322;DHT22;148;51.480;7.208;2024-01-30T16:37:10;13.00;58.70
322;DHT22;148;51.480;7.208;2024-01-30T16:39:36;13.00;59.10
322;DHT22;148;51.480;7.208;2024-01-30T16:42:03;13.00;58.90
322;DHT22;148;51.480;7.208;2024-01-30T16:44:28;13.00;59.00
322;DHT22;148;51.480;7.208;2024-01-30T16:46:54;13.00;58.60
322;DHT22;148;51.480;7.208;2024-01-30T16:49:20;13.10;58.80
322;DHT22;148;51.480;7.208;2024-01-30T16:51:45;13.10;59.40
322;DHT22;148;51.480;7.208;2024-01-30T16:54:12;13.20;59.00
322;DHT22;148;51.480;7.208;2024-01-30T16:56:37;13.20;59.50
322;DHT22;148;51.480;7.208;2024-01-30T16:59:03;13.30;59.70
322;DHT22;148;51.480;7.208;2024-01-30T17:01:29;13.20;59.90
322;DHT22;148;51.480;7.208;2024-01-30T17:03:54;13.20;60.00
322;DHT22;148;51.480;7.208;2024-01-30T17:06:20;13.10;60.00
322;DHT22;148;51.480;7.208;2024-01-30T17:08:46;13.00;59.90
322;DHT22;148;51.480;7.208;2024-01-30T17:11:12;13.00;59.70
322;DHT22;148;51.480;7.208;2024-01-30T17:13:38;12.90;59.50
322;DHT22;148;51.480;7.208;2024-01-30T17:16:03;12.90;59.30
322;DHT22;148;51.480;7.208;2024-01-30T17:18:32;12.90;59.40
322;DHT22;148;51.480;7.208;2024-01-30T17:20:59;12.80;59.30
322;DHT22;148;51.480;7.208;2024-01-30T17:23:24;12.70;59.10
322;DHT22;148;51.480;7.208;2024-01-30T17:25:51;12.70;58.70
322;DHT22;148;51.480;7.208;2024-01-30T17:28:17;12.60;58.60
322;DHT22;148;51.480;7.208;2024-01-30T17:30:42;12.60;58.70
322;DHT22;148;51.480;7.208;2024-01-30T17:33:08;12.60;58.50
322;DHT22;148;51.480;7.208;2024-01-30T17:35:34;12.60;58.50
322;DHT22;148;51.480;7.208;2024-01-30T17:37:59;12.60;58.50
322;DHT22;148;51.480;7.208;2024-01-30T17:40:25;12.60;58.10
322;DHT22;148;51.480;7.208;2024-01-30T17:42:50;12.60;58.10
322;DHT22;148;51.480;7.208;2024-01-30T17:45:16;12.60;58.40
322;DHT22;148;51.480;7.208;2024-01-30T17:47:42;12.50;58.80
322;DHT22;148;51.480;7.208;2024-01-30T17:50:08;12.50;58.70
322;DHT22;148;51.480;7.208;2024-01-30T17:52:36;12.40;58.60
322;DHT22;148;51.480;7.208;2024-01-30T17:55:03;12.40;58.20
322;DHT22;148;51.480;7.208;2024-01-30T17:57:30;12.50;57.90
322;DHT22;148;51.480;7.208;2024-01-30T17:59:55;12.40;57.80
322;DHT22;148;51.480;7.208;2024-01-30T18:02:21;12.40;57.20
322;DHT22;148;51.480;7.208;2024-01-30T18:04:47;12.40;56.00
322;DHT22;148;51.480;7.208;2024-01-30T18:07:13;12.50;54.60
322;DHT22;148;51.480;7.208;2024-01-30T18:09:40;12.40;52.50
322;DHT22;148;51.480;7.208;2024-01-30T18:12:06;12.20;49.40
322;DHT22;148;51.480;7.208;2024-01-30T18:14:32;12.00;47.40
322;DHT22;148;51.480;7.208;2024-01-30T18:16:57;12.00;45.20
322;DHT22;148;51.480;7.208;2024-01-30T18:19:23;12.00;44.50
322;DHT22;148;51.480;7.208;2024-01-30T18:21:49;12.00;46.40
322;DHT22;148;51.480;7.208;2024-01-30T18:24:15;11.90;46.90
322;DHT22;148;51.480;7.208;2024-01-30T18:26:41;11.80;47.80
322;DHT22;148;51.480;7.208;2024-01-30T18:29:09;11.70;47.40
322;DHT22;148;51.480;7.208;2024-01-30T18:31:35;11.70;47.50
322;DHT22;148;51.480;7.208;2024-01-30T18:34:00;11.70;46.90
322;DHT22;148;51.480;7.208;2024-01-30T18:36:26;11.60;47.20
322;DHT22;148;51.480;7.208;2024-01-30T18:38:55;11.60;47.50
322;DHT22;148;51.480;7.208;2024-01-30T18:41:21;11.50;47.70
322;DHT22;148;51.480;7.208;2024-01-30T18:43:46;11.40;48.00
322;DHT22;148;51.480;7.208;2024-01-30T18:46:12;11.40;47.60
322;DHT22;148;51.480;7.208;2024-01-30T18:48:38;11.40;47.80
322;DHT22;148;51.480;7.208;2024-01-30T18:51:05;11.30;47.60
322;DHT22;148;51.480;7.208;2024-01-30T18:53:30;11.50;47.80
322;DHT22;148;51.480;7.208;2024-01-30T18:55:56;11.50;49.00
322;DHT22;148;51.480;7.208;2024-01-30T18:58:22;11.50;48.90
322;DHT22;148;51.480;7.208;2024-01-30T19:00:48;11.60;49.40
322;DHT22;148;51.480;7.208;2024-01-30T19:03:15;11.70;50.50
322;DHT22;148;51.480;7.208;2024-01-30T19:05:41;11.70;51.40
322;DHT22;148;51.480;7.208;2024-01-30T19:08:07;11.70;51.80
322;DHT22;148;51.480;7.208;2024-01-30T19:10:33;11.70;51.70
322;DHT22;148;51.480;7.208;2024-01-30T19:13:00;11.70;51.90
322;DHT22;148;51.480;7.208;2024-01-30T19:15:26;11.70;52.30
322;DHT22;148;51.480;7.208;2024-01-30T19:17:51;11.60;52.20
322;DHT22;148;51.480;7.208;2024-01-30T19:20:17;11.60;52.10
322;DHT22;148;51.480;7.208;2024-01-30T19:22:43;11.60;51.20
322;DHT22;148;51.480;7.208;2024-01-30T19:25:08;11.60;51.20
322;DHT22;148;51.480;7.208;2024-01-30T19:27:34;11.50;50.90
322;DHT22;148;51.480;7.208;2024-01-30T19:30:00;11.50;50.70
322;DHT22;148;51.480;7.208;2024-01-30T19:32:25;11.40;50.10
322;DHT22;148;51.480;7.208;2024-01-30T19:34:51;11.40;49.70
322;DHT22;148;51.480;7.208;2024-01-30T19:37:22;11.30;48.70
322;DHT22;148;51.480;7.208;2024-01-30T19:39:52;11.40;49.00
322;DHT22;148;51.480;7.208;2024-01-30T19:42:21;11.40;48.60
322;DHT22;148;51.480;7.208;2024-01-30T19:44:46;11.30;48.10
322;DHT22;148;51.480;7.208;2024-01-30T19:47:12;11.30;47.60
322;DHT22;148;51.480;7.208;2024-01-30T19:49:39;11.30;47.30
322;DHT22;148;51.480;7.208;2024-01-30T19:52:08;11.20;46.30
322;DHT22;148;51.480;7.208;2024-01-30T19:54:37;11.20;45.90
322;DHT22;148;51.480;7.208;2024-01-30T19:57:04;11.20;45.10
322;DHT22;148;51.480;7.208;2024-01-30T19:59:30;11.20;45.00
322;DHT22;148;51.480;7.208;2024-01-30T20:02:00;11.20;44.20
322;DHT22;148;51.480;7.208;2024-01-30T20:04:28;11.20;43.80
322;DHT22;148;51.480;7.208;2024-01-30T20:06:55;11.20;42.20
322;DHT22;148;51.480;7.208;2024-01-30T20:09:21;11.20;41.60
322;DHT22;148;51.480;7.208;2024-01-30T20:11:48;11.20;40.80
322;DHT22;148;51.480;7.208;2024-01-30T20:14:14;11.20;40.40
322;DHT22;148;51.480;7.208;2024-01-30T20:16:41;11.10;39.30
322;DHT22;148;51.480;7.208;2024-01-30T20:19:07;11.10;38.60
322;DHT22;148;51.480;7.208;2024-01-30T20:21:34;11.10;39.00
322;DHT22;148;51.480;7.208;2024-01-30T20:24:00;11.10;37.70
322;DHT22;148;51.480;7.208;2024-01-30T20:26:25;11.10;37.80
322;DHT22;148;51.480;7.208;2024-01-30T20:28:52;11.10;37.60
322;DHT22;148;51.480;7.208;2024-01-30T20:31:20;11.00;36.00
322;DHT22;148;51.480;7.208;2024-01-30T20:33:50;11.00;35.00
322;DHT22;148;51.480;7.208;2024-01-30T20:36:17;11.00;34.40
322;DHT22;148;51.480;7.208;2024-01-30T20:38:44;11.10;33.80
322;DHT22;148;51.480;7.208;2024-01-30T20:41:10;11.10;33.90
322;DHT22;148;51.480;7.208;2024-01-30T20:43:37;11.00;33.20
322;DHT22;148;51.480;7.208;2024-01-30T20:46:03;11.00;31.90
322;DHT22;148;51.480;7.208;2024-01-30T20:48:29;10.90;29.90
322;DHT22;148;51.480;7.208;2024-01-30T20:50:55;10.90;28.70
322;DHT22;148;51.480;7.208;2024-01-30T20:53:24;10.90;27.10
322;DHT22;148;51.480;7.208;2024-01-30T20:55:54;10.80;26.50
322;DHT22;148;51.480;7.208;2024-01-30T20:58:21;10.70;24.30
322;DHT22;148;51.480;7.208;2024-01-30T21:00:47;10.80;24.00
322;DHT22;148;51.480;7.208;2024-01-30T21:03:13;10.70;24.50
322;DHT22;148;51.480;7.208;2024-01-30T21:05:38;10.80;23.50
322;DHT22;148;51.480;7.208;2024-01-30T21:08:04;10.90;22.80
322;DHT22;148;51.480;7.208;2024-01-30T21:10:30;10.90;24.00
322;DHT22;148;51.480;7.208;2024-01-30T21:12:56;10.90;24.50
322;DHT22;148;51.480;7.208;2024-01-30T21:15:22;10.80;24.20
322;DHT22;148;51.480;7.208;2024-01-30T21:17:47;10.70;23.20
322;DHT22;148;51.480;7.208;2024-01-30T21:20:13;10.70;20.30
322;DHT22;148;51.480;7.208;2024-01-30T21:22:39;10.60;20.00
322;DHT22;148;51.480;7.208;2024-01-30T21:25:05;10.50;18.50
